sensor_id;sensor_type;location;lat;lon;timestamp;pressure;altitude;pressure_sealevel;temperature;humidity
22743;BME280;11538;48.884;8.696;2023-03-15T00:02:11;98450.19;;;4.06;100.00
22743;BME280;11538;48.884;8.696;2023-03-15T00:04:37;98454.50;;;4.13;100.00
22743;BME280;11538;48.884;8.696;2023-03-15T00:07:04;98444.59;;;4.18;100.00
22743;BME280;11538;48.884;8.696;2023-03-15T00:09:31;98450.53;;;4.26;100.00
22743;BME280;11538;48.884;8.696;2023-03-15T00:11:58;98447.81;;;4.20;100.00
22743;BME280;11538;48.884;8.696;2023-03-15T00:14:25;98456.41;;;4.12;100.00
22743;BME280;11538;48.884;8.696;2023-03-15T00:16:52;98464.44;;;4.07;100.00
22743;BME280;11538;48.884;8.696;2023-03-15T00:19:20;98464.44;;;4.12;100.00
22743;BME280;11538;48.884;8.696;2023-03-15T00:21:48;98476.00;;;4.18;100.00
22743;BME280;11538;48.884;8.696;2023-03-15T00:24:15;98473.28;;;4.13;100.00
22743;BME280;11538;48.884;8.696;2023-03-15T00:26:42;98478.41;;;4.14;100.00
22743;BME280;11538;48.884;8.696;2023-03-15T00:29:08;98478.97;;;4.16;100.00
22743;BME280;11538;48.884;8.696;2023-03-15T00:31:35;98487.50;;;4.03;100.00
22743;BME280;11538;48.884;8.696;2023-03-15T00:34:03;98488.06;;;4.10;100.00
22743;BME280;11538;48.884;8.696;2023-03-15T00:36:31;98490.44;;;4.01;100.00
22743;BME280;11538;48.884;8.696;2023-03-15T00:38:58;98501.38;;;3.89;100.00
22743;BME280;11538;48.884;8.696;2023-03-15T00:41:25;98493.63;;;3.93;100.00
22743;BME280;11538;48.884;8.696;2023-03-15T00:43:52;98500.31;;;3.90;100.00
22743;BME280;11538;48.884;8.696;2023-03-15T00:46:19;98507.31;;;3.91;100.00
22743;BME280;11538;48.884;8.696;2023-03-15T00:48:49;98516.38;;;3.80;100.00
22743;BME280;11538;48.884;8.696;2023-03-15T00:51:20;98515.84;;;3.78;100.00
22743;BME280;11538;48.884;8.696;2023-03-15T00:53:50;98515.06;;;3.83;100.00
22743;BME280;11538;48.884;8.696;2023-03-15T00:56:26;98515.09;;;3.88;100.00
22743;BME280;11538;48.884;8.696;2023-03-15T00:58:53;98520.72;;;3.91;100.00
22743;BME280;11538;48.884;8.696;2023-03-15T01:01:27;98522.84;;;3.89;100.00
22743;BME280;11538;48.884;8.696;2023-03-15T01:03:56;98518.84;;;3.87;100.00
22743;BME280;11538;48.884;8.696;2023-03-15T01:06:26;98528.75;;;3.86;100.00
22743;BME280;11538;48.884;8.696;2023-03-15T01:08:54;98536.78;;;3.81;100.00
22743;BME280;11538;48.884;8.696;2023-03-15T01:11:26;98532.44;;;3.75;100.00
22743;BME280;11538;48.884;8.696;2023-03-15T01:13:57;98530.91;;;3.89;100.00
22743;BME280;11538;48.884;8.696;2023-03-15T01:16:26;98536.00;;;3.86;100.00
22743;BME280;11538;48.884;8.696;2023-03-15T01:18:54;98526.31;;;3.79;100.00
22743;BME280;11538;48.884;8.696;2023-03-15T01:21:22;98538.28;;;3.61;100.00
22743;BME280;11538;48.884;8.696;2023-03-15T01:23:50;98538.03;;;3.63;100.00
22743;BME280;11538;48.884;8.696;2023-03-15T01:26:19;98543.94;;;3.65;100.00
22743;BME280;11538;48.884;8.696;2023-03-15T01:28:46;98543.13;;;3.64;100.00
22743;BME280;11538;48.884;8.696;2023-03-15T01:31:24;98537.50;;;3.61;100.00
22743;BME280;11538;48.884;8.696;2023-03-15T01:33:52;98544.22;;;3.69;100.00
22743;BME280;11538;48.884;8.696;2023-03-15T01:36:20;98544.53;;;3.72;100.00
22743;BME280;11538;48.884;8.696;2023-03-15T01:38:47;98542.34;;;3.64;100.00
22743;BME280;11538;48.884;8.696;2023-03-15T01:41:18;98545.06;;;3.69;100.00
22743;BME280;11538;48.884;8.696;2023-03-15T01:43:45;98550.44;;;3.74;100.00
22743;BME280;11538;48.884;8.696;2023-03-15T01:46:28;98550.38;;;3.64;100.00
22743;BME280;11538;48.884;8.696;2023-03-15T01:52:09;98545.78;;;3.59;100.00
22743;BME280;11538;48.884;8.696;2023-03-15T01:54:46;98551.44;;;3.63;100.00
22743;BME280;11538;48.884;8.696;2023-03-15T01:57:40;98548.47;;;3.59;100.00
22743;BME280;11538;48.884;8.696;2023-03-15T02:00:13;98550.09;;;3.60;100.00
22743;BME280;11538;48.884;8.696;2023-03-15T02:05:53;98557.59;;;3.63;100.00
22743;BME280;11538;48.884;8.696;2023-03-15T02:08:28;98561.31;;;3.57;100.00
22743;BME280;11538;48.884;8.696;2023-03-15T02:11:03;98562.16;;;3.58;100.00
22743;BME280;11538;48.884;8.696;2023-03-15T02:13:32;98563.47;;;3.55;100.00
22743;BME280;11538;48.884;8.696;2023-03-15T02:16:01;98568.81;;;3.55;100.00
22743;BME280;11538;48.884;8.696;2023-03-15T02:18:32;98567.50;;;3.58;100.00
22743;BME280;11538;48.884;8.696;2023-03-15T02:24:31;98557.81;;;3.51;100.00
22743;BME280;11538;48.884;8.696;2023-03-15T02:27:01;98563.69;;;3.48;100.00
22743;BME280;11538;48.884;8.696;2023-03-15T02:29:29;98574.66;;;3.47;100.00
22743;BME280;11538;48.884;8.696;2023-03-15T02:31:57;98576.78;;;3.40;100.00
22743;BME280;11538;48.884;8.696;2023-03-15T02:34:24;98575.66;;;3.35;100.00
22743;BME280;11538;48.884;8.696;2023-03-15T02:36:52;98579.41;;;3.34;100.00
22743;BME280;11538;48.884;8.696;2023-03-15T02:39:21;98592.91;;;3.45;100.00
22743;BME280;11538;48.884;8.696;2023-03-15T02:41:57;98591.50;;;3.37;100.00
22743;BME280;11538;48.884;8.696;2023-03-15T02:44:40;98604.44;;;3.45;100.00
22743;BME280;11538;48.884;8.696;2023-03-15T02:47:24;98606.88;;;3.52;100.00
22743;BME280;11538;48.884;8.696;2023-03-15T02:49:53;98616.53;;;3.53;100.00
22743;BME280;11538;48.884;8.696;2023-03-15T02:52:21;98617.84;;;3.45;100.00
22743;BME280;11538;48.884;8.696;2023-03-15T02:54:49;98624.47;;;3.38;100.00
22743;BME280;11538;48.884;8.696;2023-03-15T02:57:18;98623.69;;;3.37;100.00
22743;BME280;11538;48.884;8.696;2023-03-15T02:59:45;98630.34;;;3.34;100.00
22743;BME280;11538;48.884;8.696;2023-03-15T03:02:12;98637.88;;;3.38;100.00
22743;BME280;11538;48.884;8.696;2023-03-15T03:04:39;98643.19;;;3.32;100.00
22743;BME280;11538;48.884;8.696;2023-03-15T03:07:07;98647.19;;;3.30;100.00
22743;BME280;11538;48.884;8.696;2023-03-15T03:09:34;98644.22;;;3.26;100.00
22743;BME280;11538;48.884;8.696;2023-03-15T03:12:01;98656.28;;;3.29;100.00
22743;BME280;11538;48.884;8.696;2023-03-15T03:14:27;98657.13;;;3.29;100.00
22743;BME280;11538;48.884;8.696;2023-03-15T03:16:54;98667.28;;;3.27;100.00
22743;BME280;11538;48.884;8.696;2023-03-15T03:19:21;98664.84;;;3.26;100.00
22743;BME280;11538;48.884;8.696;2023-03-15T03:21:52;98675.84;;;3.24;100.00
22743;BME280;11538;48.884;8.696;2023-03-15T03:24:20;98675.78;;;3.19;100.00
22743;BME280;11538;48.884;8.696;2023-03-15T03:26:47;98678.47;;;3.19;100.00
22743;BME280;11538;48.884;8.696;2023-03-15T03:29:14;98684.91;;;3.18;100.00
22743;BME280;11538;48.884;8.696;2023-03-15T03:31:43;98690.84;;;3.25;100.00
22743;BME280;11538;48.884;8.696;2023-03-15T03:34:10;98691.88;;;3.19;100.00
22743;BME280;11538;48.884;8.696;2023-03-15T03:36:42;98706.56;;;3.16;100.00
22743;BME280;11538;48.884;8.696;2023-03-15T03:39:10;98699.31;;;3.12;100.00
22743;BME280;11538;48.884;8.696;2023-03-15T03:41:37;98708.03;;;3.02;100.00
22743;BME280;11538;48.884;8.696;2023-03-15T03:44:04;98702.94;;;3.00;100.00
22743;BME280;11538;48.884;8.696;2023-03-15T03:46:31;98705.81;;;2.93;100.00
22743;BME280;11538;48.884;8.696;2023-03-15T03:48:58;98701.56;;;2.98;100.00
22743;BME280;11538;48.884;8.696;2023-03-15T03:51:25;98704.00;;;2.99;100.00
22743;BME280;11538;48.884;8.696;2023-03-15T03:53:51;98710.44;;;2.98;100.00
22743;BME280;11538;48.884;8.696;2023-03-15T03:56:18;98709.53;;;2.92;100.00
22743;BME280;11538;48.884;8.696;2023-03-15T03:58:45;98712.78;;;2.95;100.00
22743;BME280;11538;48.884;8.696;2023-03-15T04:01:12;98718.66;;;2.91;100.00
22743;BME280;11538;48.884;8.696;2023-03-15T04:03:38;98722.38;;;2.90;100.00
22743;BME280;11538;48.884;8.696;2023-03-15T04:06:05;98729.97;;;2.99;100.00
22743;BME280;11538;48.884;8.696;2023-03-15T04:08:32;98726.94;;;2.90;100.00
22743;BME280;11538;48.884;8.696;2023-03-15T04:10:59;98732.75;;;2.82;100.00
22743;BME280;11538;48.884;8.696;2023-03-15T04:13:30;98734.03;;;2.79;100.00
22743;BME280;11538;48.884;8.696;2023-03-15T04:15:57;98732.19;;;2.80;100.00
22743;BME280;11538;48.884;8.696;2023-03-15T04:18:24;98738.03;;;2.76;100.00
22743;BME280;11538;48.884;8.696;2023-03-15T04:20:51;98744.41;;;2.70;100.00
22743;BME280;11538;48.884;8.696;2023-03-15T04:23:22;98739.09;;;2.75;100.00
22743;BME280;11538;48.884;8.696;2023-03-15T04:25:53;98741.63;;;2.87;100.00
22743;BME280;11538;48.884;8.696;2023-03-15T04:28:23;98740.53;;;2.83;100.00
22743;BME280;11538;48.884;8.696;2023-03-15T04:30:50;98732.97;;;2.80;100.00
22743;BME280;11538;48.884;8.696;2023-03-15T04:33:17;98738.59;;;2.78;100.00
22743;BME280;11538;48.884;8.696;2023-03-15T04:35:44;98741.81;;;2.58;100.00
22743;BME280;11538;48.884;8.696;2023-03-15T04:38:11;98735.63;;;2.58;100.00
22743;BME280;11538;48.884;8.696;2023-03-15T04:40:38;98739.22;;;2.63;100.00
22743;BME280;11538;48.884;8.696;2023-03-15T04:43:05;98743.44;;;2.59;100.00
22743;BME280;11538;48.884;8.696;2023-03-15T04:45:32;98745.84;;;2.61;100.00
22743;BME280;11538;48.884;8.696;2023-03-15T04:47:59;98749.56;;;2.77;100.00
22743;BME280;11538;48.884;8.696;2023-03-15T04:50:28;98744.13;;;2.72;100.00
22743;BME280;11538;48.884;8.696;2023-03-15T04:52:57;98739.84;;;2.71;100.00
22743;BME280;11538;48.884;8.696;2023-03-15T04:55:25;98742.78;;;2.69;100.00
22743;BME280;11538;48.884;8.696;2023-03-15T04:57:52;98747.69;;;2.55;100.00
22743;BME280;11538;48.884;8.696;2023-03-15T05:00:19;98743.47;;;2.42;100.00
22743;BME280;11538;48.884;8.696;2023-03-15T05:02:47;98745.28;;;2.37;100.00
22743;BME280;11538;48.884;8.696;2023-03-15T05:05:22;98746.56;;;2.34;100.00
22743;BME280;11538;48.884;8.696;2023-03-15T05:07:49;98741.22;;;2.34;100.00
22743;BME280;11538;48.884;8.696;2023-03-15T05:10:17;98735.13;;;2.39;100.00
22743;BME280;11538;48.884;8.696;2023-03-15T05:12:43;98738.69;;;2.44;100.00
22743;BME280;11538;48.884;8.696;2023-03-15T05:15:11;98737.56;;;2.40;100.00
22743;BME280;11538;48.884;8.696;2023-03-15T05:17:38;98743.75;;;2.41;100.00
22743;BME280;11538;48.884;8.696;2023-03-15T05:20:05;98751.63;;;2.30;100.00
22743;BME280;11538;48.884;8.696;2023-03-15T05:22:39;98750.00;;;2.12;100.00
22743;BME280;11538;48.884;8.696;2023-03-15T05:25:08;98759.19;;;2.16;100.00
22743;BME280;11538;48.884;8.696;2023-03-15T05:27:37;98760.72;;;2.12;100.00
22743;BME280;11538;48.884;8.696;2023-03-15T05:30:06;98766.91;;;2.13;100.00
22743;BME280;11538;48.884;8.696;2023-03-15T05:32:33;98760.06;;;2.05;100.00
22743;BME280;11538;48.884;8.696;2023-03-15T05:35:01;98762.66;;;2.00;100.00
22743;BME280;11538;48.884;8.696;2023-03-15T05:37:29;98763.16;;;1.97;100.00
22743;BME280;11538;48.884;8.696;2023-03-15T05:39:58;98766.06;;;1.78;100.00
22743;BME280;11538;48.884;8.696;2023-03-15T05:42:26;98764.78;;;1.98;100.00
22743;BME280;11538;48.884;8.696;2023-03-15T05:44:53;98766.25;;;1.88;100.00
22743;BME280;11538;48.884;8.696;2023-03-15T05:47:22;98765.28;;;1.95;100.00
22743;BME280;11538;48.884;8.696;2023-03-15T05:49:49;98773.78;;;1.92;100.00
22743;BME280;11538;48.884;8.696;2023-03-15T05:52:16;98777.16;;;1.87;100.00
22743;BME280;11538;48.884;8.696;2023-03-15T05:54:43;98789.00;;;1.91;100.00
22743;BME280;11538;48.884;8.696;2023-03-15T05:57:10;98788.69;;;1.87;100.00
22743;BME280;11538;48.884;8.696;2023-03-15T05:59:37;98782.59;;;1.75;100.00
22743;BME280;11538;48.884;8.696;2023-03-15T06:02:04;98783.25;;;1.82;100.00
22743;BME280;11538;48.884;8.696;2023-03-15T06:04:31;98779.94;;;1.92;100.00
22743;BME280;11538;48.884;8.696;2023-03-15T06:06:58;98784.72;;;1.90;100.00
22743;BME280;11538;48.884;8.696;2023-03-15T06:09:25;98777.25;;;1.92;100.00
22743;BME280;11538;48.884;8.696;2023-03-15T06:11:52;98784.13;;;1.88;100.00
22743;BME280;11538;48.884;8.696;2023-03-15T06:14:19;98787.56;;;1.83;100.00
22743;BME280;11538;48.884;8.696;2023-03-15T06:16:46;98794.84;;;1.88;100.00
22743;BME280;11538;48.884;8.696;2023-03-15T06:19:13;98792.81;;;1.95;100.00
22743;BME280;11538;48.884;8.696;2023-03-15T06:21:39;98783.09;;;2.23;100.00
22743;BME280;11538;48.884;8.696;2023-03-15T06:24:07;98788.75;;;2.27;100.00
22743;BME280;11538;48.884;8.696;2023-03-15T06:26:34;98794.91;;;2.44;100.00
22743;BME280;11538;48.884;8.696;2023-03-15T06:29:01;98794.81;;;2.56;100.00
22743;BME280;11538;48.884;8.696;2023-03-15T06:31:28;98786.75;;;2.73;100.00
22743;BME280;11538;48.884;8.696;2023-03-15T06:33:55;98792.41;;;2.77;100.00
22743;BME280;11538;48.884;8.696;2023-03-15T06:36:21;98797.31;;;2.63;100.00
22743;BME280;11538;48.884;8.696;2023-03-15T06:38:51;98798.63;;;2.43;100.00
22743;BME280;11538;48.884;8.696;2023-03-15T06:41:20;98807.25;;;2.45;100.00
22743;BME280;11538;48.884;8.696;2023-03-15T06:43:47;98807.00;;;2.47;100.00
22743;BME280;11538;48.884;8.696;2023-03-15T06:46:14;98804.31;;;2.47;100.00
22743;BME280;11538;48.884;8.696;2023-03-15T06:48:41;98807.72;;;2.42;100.00
22743;BME280;11538;48.884;8.696;2023-03-15T06:51:08;98811.16;;;2.38;100.00
22743;BME280;11538;48.884;8.696;2023-03-15T06:53:35;98817.81;;;2.18;100.00
22743;BME280;11538;48.884;8.696;2023-03-15T06:56:02;98810.34;;;2.20;100.00
22743;BME280;11538;48.884;8.696;2023-03-15T06:58:28;98817.00;;;2.34;100.00
22743;BME280;11538;48.884;8.696;2023-03-15T07:00:55;98818.44;;;2.42;100.00
22743;BME280;11538;48.884;8.696;2023-03-15T07:03:22;98818.78;;;2.46;100.00
22743;BME280;11538;48.884;8.696;2023-03-15T07:05:49;98818.59;;;2.53;100.00
22743;BME280;11538;48.884;8.696;2023-03-15T07:08:23;98820.94;;;2.66;100.00
22743;BME280;11538;48.884;8.696;2023-03-15T07:10:51;98825.47;;;2.66;100.00
22743;BME280;11538;48.884;8.696;2023-03-15T07:13:18;98821.50;;;2.68;100.00
22743;BME280;11538;48.884;8.696;2023-03-15T07:15:52;98827.50;;;2.75;100.00
22743;BME280;11538;48.884;8.696;2023-03-15T07:18:19;98836.16;;;2.83;100.00
22743;BME280;11538;48.884;8.696;2023-03-15T07:20:46;98836.53;;;2.91;100.00
22743;BME280;11538;48.884;8.696;2023-03-15T07:23:14;98827.69;;;2.91;100.00
22743;BME280;11538;48.884;8.696;2023-03-15T07:25:41;98831.50;;;2.95;100.00
22743;BME280;11538;48.884;8.696;2023-03-15T07:28:22;98827.28;;;2.99;100.00
22743;BME280;11538;48.884;8.696;2023-03-15T07:30:57;98831.88;;;3.04;100.00
22743;BME280;11538;48.884;8.696;2023-03-15T07:33:26;98835.00;;;3.18;99.43
22743;BME280;11538;48.884;8.696;2023-03-15T07:35:54;98840.22;;;3.30;98.79
22743;BME280;11538;48.884;8.696;2023-03-15T07:38:26;98834.13;;;3.34;97.03
22743;BME280;11538;48.884;8.696;2023-03-15T07:40:57;98838.97;;;3.38;93.98
22743;BME280;11538;48.884;8.696;2023-03-15T07:43:24;98839.34;;;3.46;91.14
22743;BME280;11538;48.884;8.696;2023-03-15T07:45:50;98833.78;;;3.53;92.25
22743;BME280;11538;48.884;8.696;2023-03-15T07:48:17;98839.53;;;3.62;94.42
22743;BME280;11538;48.884;8.696;2023-03-15T07:50:45;98836.88;;;3.67;91.67
22743;BME280;11538;48.884;8.696;2023-03-15T07:53:14;98838.09;;;3.82;90.23
22743;BME280;11538;48.884;8.696;2023-03-15T07:55:41;98841.25;;;4.01;85.96
22743;BME280;11538;48.884;8.696;2023-03-15T07:58:07;98834.63;;;4.14;87.66
22743;BME280;11538;48.884;8.696;2023-03-15T08:00:34;98839.31;;;4.29;88.08
22743;BME280;11538;48.884;8.696;2023-03-15T08:03:01;98848.00;;;4.41;86.04
22743;BME280;11538;48.884;8.696;2023-03-15T08:05:28;98844.00;;;4.49;82.89
22743;BME280;11538;48.884;8.696;2023-03-15T08:07:56;98840.41;;;4.71;82.09
22743;BME280;11538;48.884;8.696;2023-03-15T08:10:23;98851.34;;;5.02;75.78
22743;BME280;11538;48.884;8.696;2023-03-15T08:12:50;98842.06;;;5.30;72.49
22743;BME280;11538;48.884;8.696;2023-03-15T08:15:18;98844.53;;;5.47;68.88
22743;BME280;11538;48.884;8.696;2023-03-15T08:17:47;98850.78;;;5.63;69.33
22743;BME280;11538;48.884;8.696;2023-03-15T08:20:15;98853.72;;;5.72;68.84
22743;BME280;11538;48.884;8.696;2023-03-15T08:22:47;98850.28;;;5.92;65.93
22743;BME280;11538;48.884;8.696;2023-03-15T08:25:19;98855.91;;;5.91;63.00
22743;BME280;11538;48.884;8.696;2023-03-15T08:27:47;98855.38;;;5.89;62.11
22743;BME280;11538;48.884;8.696;2023-03-15T08:30:15;98860.03;;;6.09;64.16
22743;BME280;11538;48.884;8.696;2023-03-15T08:32:45;98857.34;;;6.24;63.65
22743;BME280;11538;48.884;8.696;2023-03-15T08:35:15;98871.88;;;6.34;62.46
22743;BME280;11538;48.884;8.696;2023-03-15T08:37:43;98867.56;;;6.27;58.98
22743;BME280;11538;48.884;8.696;2023-03-15T08:40:19;98862.72;;;6.35;58.49
22743;BME280;11538;48.884;8.696;2023-03-15T08:42:53;98862.97;;;6.75;57.80
22743;BME280;11538;48.884;8.696;2023-03-15T08:45:22;98865.06;;;6.98;56.82
22743;BME280;11538;48.884;8.696;2023-03-15T08:47:59;98861.28;;;6.99;55.09
22743;BME280;11538;48.884;8.696;2023-03-15T08:50:27;98873.41;;;7.07;56.57
22743;BME280;11538;48.884;8.696;2023-03-15T08:52:55;98870.97;;;7.06;55.42
22743;BME280;11538;48.884;8.696;2023-03-15T08:55:22;98871.50;;;7.08;55.40
22743;BME280;11538;48.884;8.696;2023-03-15T08:57:49;98869.56;;;7.29;55.38
22743;BME280;11538;48.884;8.696;2023-03-15T09:00:17;98875.94;;;7.54;55.91
22743;BME280;11538;48.884;8.696;2023-03-15T09:02:49;98866.97;;;7.69;55.61
22743;BME280;11538;48.884;8.696;2023-03-15T09:05:22;98873.94;;;7.80;53.33
22743;BME280;11538;48.884;8.696;2023-03-15T09:07:49;98883.75;;;8.11;53.75
22743;BME280;11538;48.884;8.696;2023-03-15T09:10:19;98883.53;;;7.97;52.04
22743;BME280;11538;48.884;8.696;2023-03-15T09:12:51;98887.44;;;7.80;52.19
22743;BME280;11538;48.884;8.696;2023-03-15T09:15:20;98886.66;;;7.69;52.40
22743;BME280;11538;48.884;8.696;2023-03-15T09:17:49;98896.22;;;8.01;52.73
22743;BME280;11538;48.884;8.696;2023-03-15T09:20:19;98887.91;;;8.32;51.03
22743;BME280;11538;48.884;8.696;2023-03-15T09:22:56;98889.00;;;8.31;50.93
22743;BME280;11538;48.884;8.696;2023-03-15T09:25:25;98893.66;;;8.20;51.25
22743;BME280;11538;48.884;8.696;2023-03-15T09:27:52;98898.13;;;7.96;51.78
22743;BME280;11538;48.884;8.696;2023-03-15T09:30:19;98889.28;;;7.85;52.79
22743;BME280;11538;48.884;8.696;2023-03-15T09:32:46;98895.06;;;8.13;52.84
22743;BME280;11538;48.884;8.696;2023-03-15T09:35:17;98896.31;;;8.26;50.85
22743;BME280;11538;48.884;8.696;2023-03-15T09:37:47;98891.72;;;8.26;51.33
22743;BME280;11538;48.884;8.696;2023-03-15T09:40:31;98893.94;;;8.19;49.31
22743;BME280;11538;48.884;8.696;2023-03-15T09:46:02;98905.97;;;7.97;47.05
22743;BME280;11538;48.884;8.696;2023-03-15T09:49:02;98904.13;;;7.87;47.78
22743;BME280;11538;48.884;8.696;2023-03-15T09:51:38;98904.38;;;7.96;48.18
22743;BME280;11538;48.884;8.696;2023-03-15T09:54:13;98900.56;;;8.72;48.16
22743;BME280;11538;48.884;8.696;2023-03-15T09:57:02;98907.91;;;9.25;46.76
22743;BME280;11538;48.884;8.696;2023-03-15T09:59:45;98912.63;;;9.39;50.43
22743;BME280;11538;48.884;8.696;2023-03-15T10:02:23;98914.50;;;9.62;43.83
22743;BME280;11538;48.884;8.696;2023-03-15T10:04:58;98911.25;;;9.85;43.56
22743;BME280;11538;48.884;8.696;2023-03-15T10:07:27;98916.53;;;9.95;46.85
22743;BME280;11538;48.884;8.696;2023-03-15T10:09:54;98916.47;;;9.57;43.09
22743;BME280;11538;48.884;8.696;2023-03-15T10:12:30;98913.78;;;9.32;44.84
22743;BME280;11538;48.884;8.696;2023-03-15T10:15:50;98917.03;;;9.05;46.35
22743;BME280;11538;48.884;8.696;2023-03-15T10:24:42;98910.28;;;9.32;46.13
22743;BME280;11538;48.884;8.696;2023-03-15T10:27:41;98905.06;;;9.60;45.12
22743;BME280;11538;48.884;8.696;2023-03-15T10:30:18;98907.00;;;9.78;45.34
22743;BME280;11538;48.884;8.696;2023-03-15T10:32:59;98912.63;;;9.63;44.54
22743;BME280;11538;48.884;8.696;2023-03-15T10:35:27;98917.13;;;9.48;46.17
22743;BME280;11538;48.884;8.696;2023-03-15T10:37:54;98918.69;;;9.01;45.66
22743;BME280;11538;48.884;8.696;2023-03-15T10:40:44;98928.44;;;8.72;49.07
22743;BME280;11538;48.884;8.696;2023-03-15T10:43:23;98924.00;;;8.52;47.45
22743;BME280;11538;48.884;8.696;2023-03-15T10:46:07;98931.16;;;8.32;47.98
22743;BME280;11538;48.884;8.696;2023-03-15T10:49:07;98939.06;;;8.18;48.68
22743;BME280;11538;48.884;8.696;2023-03-15T10:51:42;98942.13;;;8.07;49.90
22743;BME280;11538;48.884;8.696;2023-03-15T10:54:23;98927.59;;;7.97;50.72
22743;BME280;11538;48.884;8.696;2023-03-15T10:59:32;98940.78;;;7.99;52.05
22743;BME280;11538;48.884;8.696;2023-03-15T11:02:26;98934.06;;;7.91;52.41
22743;BME280;11538;48.884;8.696;2023-03-15T11:07:57;98934.44;;;7.74;56.11
22743;BME280;11538;48.884;8.696;2023-03-15T11:10:28;98931.97;;;7.78;54.63
22743;BME280;11538;48.884;8.696;2023-03-15T11:13:18;98932.03;;;7.67;54.81
22743;BME280;11538;48.884;8.696;2023-03-15T11:15:59;98943.34;;;7.74;55.07
22743;BME280;11538;48.884;8.696;2023-03-15T11:18:45;98937.88;;;7.85;54.54
22743;BME280;11538;48.884;8.696;2023-03-15T11:21:15;98940.94;;;7.68;53.73
22743;BME280;11538;48.884;8.696;2023-03-15T11:23:50;98946.88;;;7.70;53.41
22743;BME280;11538;48.884;8.696;2023-03-15T11:26:23;98942.53;;;7.79;53.91
22743;BME280;11538;48.884;8.696;2023-03-15T11:29:24;98944.06;;;7.96;53.19
22743;BME280;11538;48.884;8.696;2023-03-15T11:31:54;98929.97;;;8.04;53.35
22743;BME280;11538;48.884;8.696;2023-03-15T11:37:03;98930.13;;;8.23;52.97
22743;BME280;11538;48.884;8.696;2023-03-15T11:39:59;98929.38;;;8.12;53.60
22743;BME280;11538;48.884;8.696;2023-03-15T11:43:05;98931.81;;;8.14;53.68
22743;BME280;11538;48.884;8.696;2023-03-15T11:48:38;98929.28;;;7.78;53.52
22743;BME280;11538;48.884;8.696;2023-03-15T11:51:11;98939.88;;;7.64;54.34
22743;BME280;11538;48.884;8.696;2023-03-15T11:54:14;98935.31;;;7.54;55.53
22743;BME280;11538;48.884;8.696;2023-03-15T11:57:01;98929.94;;;7.49;55.27
22743;BME280;11538;48.884;8.696;2023-03-15T11:59:36;98928.63;;;7.46;55.48
22743;BME280;11538;48.884;8.696;2023-03-15T12:04:45;98932.69;;;7.38;55.72
22743;BME280;11538;48.884;8.696;2023-03-15T12:18:03;98986.19;;;6.79;66.09
22743;BME280;11538;48.884;8.696;2023-03-15T12:20:41;98979.66;;;6.49;71.67
22743;BME280;11538;48.884;8.696;2023-03-15T12:25:58;98971.78;;;6.06;83.58
22743;BME280;11538;48.884;8.696;2023-03-15T12:28:48;98958.25;;;5.96;83.65
22743;BME280;11538;48.884;8.696;2023-03-15T12:31:16;98966.66;;;6.05;84.21
22743;BME280;11538;48.884;8.696;2023-03-15T12:33:55;98960.19;;;6.06;84.06
22743;BME280;11538;48.884;8.696;2023-03-15T12:36:38;98959.69;;;6.24;85.35
22743;BME280;11538;48.884;8.696;2023-03-15T12:41:45;98960.81;;;6.44;85.50
22743;BME280;11538;48.884;8.696;2023-03-15T12:55:02;98979.06;;;6.16;83.97
22743;BME280;11538;48.884;8.696;2023-03-15T12:57:38;98979.91;;;6.17;84.61
22743;BME280;11538;48.884;8.696;2023-03-15T13:00:18;98996.03;;;6.11;86.02
22743;BME280;11538;48.884;8.696;2023-03-15T13:03:15;98987.94;;;6.01;86.50
22743;BME280;11538;48.884;8.696;2023-03-15T13:06:15;98978.94;;;5.85;88.50
22743;BME280;11538;48.884;8.696;2023-03-15T13:12:17;98989.09;;;5.67;93.85
22743;BME280;11538;48.884;8.696;2023-03-15T13:23:18;98978.00;;;5.53;100.00
22743;BME280;11538;48.884;8.696;2023-03-15T13:28:46;98968.94;;;5.75;100.00
22743;BME280;11538;48.884;8.696;2023-03-15T13:31:23;98966.31;;;5.96;100.00
22743;BME280;11538;48.884;8.696;2023-03-15T13:33:54;98962.31;;;5.98;100.00
22743;BME280;11538;48.884;8.696;2023-03-15T13:36:28;98956.72;;;6.10;100.00
22743;BME280;11538;48.884;8.696;2023-03-15T13:39:15;98953.22;;;6.15;99.53
22743;BME280;11538;48.884;8.696;2023-03-15T13:41:43;98943.84;;;6.38;100.00
22743;BME280;11538;48.884;8.696;2023-03-15T13:44:20;98947.84;;;7.19;94.74
22743;BME280;11538;48.884;8.696;2023-03-15T13:46:49;98944.38;;;7.84;87.15
22743;BME280;11538;48.884;8.696;2023-03-15T13:49:18;98938.66;;;7.20;90.87
22743;BME280;11538;48.884;8.696;2023-03-15T13:51:48;98939.03;;;7.68;90.23
22743;BME280;11538;48.884;8.696;2023-03-15T13:54:31;98926.69;;;8.07;85.77
22743;BME280;11538;48.884;8.696;2023-03-15T13:57:05;98939.97;;;8.43;84.15
22743;BME280;11538;48.884;8.696;2023-03-15T13:59:56;98937.13;;;8.69;80.22
22743;BME280;11538;48.884;8.696;2023-03-15T14:02:50;98935.44;;;7.88;83.80
22743;BME280;11538;48.884;8.696;2023-03-15T14:05:23;98941.84;;;7.42;87.70
22743;BME280;11538;48.884;8.696;2023-03-15T14:08:05;98943.50;;;7.23;87.46
22743;BME280;11538;48.884;8.696;2023-03-15T14:10:37;98940.28;;;7.26;86.87
22743;BME280;11538;48.884;8.696;2023-03-15T14:16:03;98945.72;;;7.05;91.57
22743;BME280;11538;48.884;8.696;2023-03-15T14:18:36;98952.47;;;6.92;92.75
22743;BME280;11538;48.884;8.696;2023-03-15T14:21:17;98956.78;;;6.83;97.36
22743;BME280;11538;48.884;8.696;2023-03-15T14:23:47;98972.94;;;6.47;99.49
22743;BME280;11538;48.884;8.696;2023-03-15T14:26:20;98966.41;;;6.11;100.00
22743;BME280;11538;48.884;8.696;2023-03-15T14:29:14;98969.75;;;5.76;100.00
22743;BME280;11538;48.884;8.696;2023-03-15T14:31:49;98972.31;;;5.45;100.00
22743;BME280;11538;48.884;8.696;2023-03-15T14:34:43;98985.91;;;5.22;100.00
22743;BME280;11538;48.884;8.696;2023-03-15T14:37:40;98990.00;;;4.92;100.00
22743;BME280;11538;48.884;8.696;2023-03-15T14:40:30;98993.88;;;4.74;100.00
22743;BME280;11538;48.884;8.696;2023-03-15T14:43:05;98997.03;;;4.66;100.00
22743;BME280;11538;48.884;8.696;2023-03-15T14:45:36;98997.63;;;4.73;100.00
22743;BME280;11538;48.884;8.696;2023-03-15T14:50:42;98994.09;;;4.67;100.00